createdAt,value
2022-10-04T00:04:04.167Z,1024.91
2022-10-04T00:19:21.170Z,1024.94
2022-10-04T00:34:38.109Z,1024.91
2022-10-04T00:49:54.121Z,1024.83
2022-10-04T01:05:11.063Z,1024.89
2022-10-04T01:20:27.064Z,1024.81
2022-10-04T01:35:43.009Z,1024.81
2022-10-04T01:36:24.898Z,1024.81
2022-10-04T01:51:01.027Z,1024.71
2022-10-04T02:06:18.986Z,1024.68
2022-10-04T02:21:35.967Z,1024.54
2022-10-04T02:36:52.033Z,1024.46
2022-10-04T02:52:07.904Z,1024.4
2022-10-04T03:07:24.881Z,1024.34
2022-10-04T03:22:44.857Z,1024.4
2022-10-04T03:37:56.822Z,1024.48
2022-10-04T03:53:13.805Z,1024.4
2022-10-04T04:08:31.779Z,1024.49
2022-10-04T04:23:48.776Z,1024.55
2022-10-04T04:39:04.730Z,1024.55
2022-10-04T04:54:20.665Z,1024.7
2022-10-04T05:09:36.700Z,1024.78
2022-10-04T05:24:52.619Z,1024.87
2022-10-04T05:40:09.630Z,1024.84
2022-10-04T05:55:27.563Z,1024.76
2022-10-04T06:10:44.575Z,1024.84
2022-10-04T06:26:00.513Z,1024.89
2022-10-04T06:41:16.565Z,1024.94
2022-10-04T06:56:33.462Z,1025.07
2022-10-04T07:11:49.471Z,1025.12
2022-10-04T07:27:05.491Z,1025.19
2022-10-04T07:42:22.408Z,1025.17
2022-10-04T07:57:40.350Z,1025.22
2022-10-04T08:12:57.342Z,1025.17
2022-10-04T08:28:13.365Z,1025.22
2022-10-04T08:43:29.287Z,1025.3
2022-10-04T08:58:46.223Z,1025.24
2022-10-04T09:14:02.205Z,1025.2
2022-10-04T09:29:19.189Z,1025.17
2022-10-04T09:44:36.128Z,1025.06
2022-10-04T09:59:54.122Z,1025
2022-10-04T10:15:10.065Z,1025.02
2022-10-04T10:30:26.057Z,1025.04
2022-10-04T10:45:42.009Z,1024.88
2022-10-04T11:00:59.008Z,1024.87
2022-10-04T11:16:15.030Z,1024.91
2022-10-04T11:31:32.000Z,1024.91
2022-10-04T11:46:49.260Z,1024.77
2022-10-04T12:02:05.844Z,1024.76
2022-10-04T12:17:21.814Z,1024.42
2022-10-04T12:32:37.777Z,1024.23
2022-10-04T12:47:53.758Z,1024.08
2022-10-04T13:03:10.716Z,1023.87
2022-10-04T13:18:26.684Z,1023.78
2022-10-04T13:33:43.664Z,1023.62
2022-10-04T13:49:00.616Z,1023.44
2022-10-04T14:04:17.582Z,1023.32
2022-10-04T14:19:33.572Z,1023.19
2022-10-04T14:34:49.513Z,1023.07
2022-10-04T14:50:05.513Z,1022.99
2022-10-04T15:05:23.465Z,1023.03
2022-10-04T15:20:39.451Z,1023.04
2022-10-04T15:35:55.392Z,1023.11
2022-10-04T15:51:11.428Z,1023.29
2022-10-04T16:06:29.330Z,1023.27
2022-10-04T16:21:46.329Z,1023.34
2022-10-04T16:37:03.296Z,1023.43
2022-10-04T16:52:19.281Z,1023.47
2022-10-04T17:07:36.196Z,1023.65
2022-10-04T17:22:52.210Z,1024.01
2022-10-04T17:38:08.177Z,1024.02
2022-10-04T17:53:25.139Z,1024.36
2022-10-04T18:08:43.118Z,1024.47
2022-10-04T18:24:00.098Z,1024.64
2022-10-04T18:39:16.060Z,1024.96
2022-10-04T18:54:31.992Z,1024.99
2022-10-04T19:09:48.999Z,1025.27
2022-10-04T19:25:04.935Z,1025.47
2022-10-04T19:40:20.938Z,1025.55
2022-10-04T19:55:37.878Z,1025.64
2022-10-04T20:10:55.886Z,1025.86
2022-10-04T20:26:12.821Z,1025.92
2022-10-04T20:41:28.818Z,1026.14
2022-10-04T20:56:45.034Z,1026.43
2022-10-04T21:12:01.764Z,1026.59
2022-10-04T21:27:17.705Z,1026.76
2022-10-04T21:42:34.716Z,1026.79
2022-10-04T21:57:51.716Z,1026.81
2022-10-04T22:13:09.662Z,1026.98
2022-10-04T22:28:25.604Z,1027.17
2022-10-04T22:43:41.600Z,1027.23
2022-10-04T22:58:57.546Z,1027.23
2022-10-04T23:14:14.525Z,1027.18
2022-10-04T23:29:30.519Z,1026.94
2022-10-04T23:44:47.459Z,1026.86
